Flight Track Log - Related Links

Times and Time Zones

All times are in EDT time to prevent confusion due to time zone crossing. See the LOT393 flight status page for this flight to view local times or setup timezone preferences in your user account.

Time Position Orientation Groundspeed Altitude Reporting Facility
EDT Latitude Longitude Course Direction KTS MPH feet Rate Location/Type
Wed 11:43:00 AM 52.2911 20.2780 287° West  Level Estimated
Wed 11:44:00 AM 52.3157 20.1398 286° West  Level Estimated
Wed 11:45:00 AM 52.3401 20.0013 286° West  Level Estimated
Wed 11:46:00 AM 52.3644 19.8627 286° West  Level Estimated
Wed 11:47:00 AM 52.3885 19.7240 286° West  Level Estimated
Wed 11:48:00 AM 52.4125 19.5851 286° West  Level Estimated
Wed 11:49:00 AM 52.4362 19.4461 286° West  Level Estimated
Wed 11:50:00 AM 52.4599 19.3069 286° West  Level Estimated
Wed 11:51:00 AM 52.4833 19.1675 286° West  Level Estimated
Wed 11:52:00 AM 52.5066 19.0280 285° West  Level Estimated
Wed 11:53:00 AM 52.5297 18.8884 285° West  Level Estimated
Wed 11:54:00 AM 52.5527 18.7486 285° West  Level Estimated
Wed 11:55:00 AM 52.5755 18.6087 285° West  Level Estimated
Wed 11:56:00 AM 52.5981 18.4686 285° West  Level Estimated
Wed 11:57:00 AM 52.6206 18.3284 285° West  Level Estimated
Wed 11:58:00 AM 52.6429 18.1880 285° West  Level Estimated
Wed 11:59:00 AM 52.6650 18.0475 285° West  Level Estimated
Wed 12:00:00 PM 52.6870 17.9069 285° West  Level Estimated
Wed 12:01:00 PM 52.7088 17.7661 284° West  Level Estimated
Wed 12:02:00 PM 52.7304 17.6252 284° West  Level Estimated
Wed 12:03:00 PM 52.7519 17.4841 284° West  Level Estimated
Wed 12:04:00 PM 52.7732 17.3429 284° West  Level Estimated
Wed 12:05:00 PM 52.7943 17.2016 284° West  Level Estimated
Wed 12:06:00 PM 52.8153 17.0601 284° West  Level Estimated
Wed 12:07:00 PM 52.8361 16.9185 284° West  Level Estimated
Wed 12:08:00 PM 52.8567 16.7767 284° West  Level Estimated
Wed 12:09:00 PM 52.8772 16.6348 283° West  Level Estimated
Wed 12:10:00 PM 52.8975 16.4928 283° West  Level Estimated
Wed 12:11:00 PM 52.9176 16.3507 283° West  Level Estimated
Wed 12:12:00 PM 52.9376 16.2084 283° West  Level Estimated
Wed 12:13:00 PM 52.9573 16.0660 283° West  Level Estimated
Wed 12:14:00 PM 52.9770 15.9235 283° West  Level Estimated
Wed 12:15:00 PM 52.9964 15.7808 283° West  Level Estimated
Wed 12:16:00 PM 53.0157 15.6380 283° West  Level Estimated
Wed 12:17:00 PM 53.0348 15.4951 283° West  Level Estimated
Wed 12:18:00 PM 53.0537 15.3520 282° West  Level Estimated
Wed 12:19:00 PM 53.0724 15.2088 282° West  Level Estimated
Wed 12:20:00 PM 53.0910 15.0655 282° West  Level Estimated
Wed 12:21:00 PM 53.1094 14.9221 282° West  Level Estimated
Wed 12:22:00 PM 53.1277 14.7786 282° West  Level Estimated
Wed 12:23:00 PM 53.1457 14.6349 282° West  Level Estimated
Wed 12:24:00 PM 53.1636 14.4911 282° West  Level Estimated
Wed 12:25:00 PM 53.1813 14.3472 282° West  Level Estimated
Wed 12:26:00 PM 53.1989 14.2031 282° West  Level Estimated
Wed 12:27:00 PM 53.2163 14.0590 281° West  Level Estimated
Wed 12:28:00 PM 53.2335 13.9148 281° West  Level Estimated
Wed 12:29:00 PM 53.2505 13.7704 281° West  Level Estimated
Wed 12:30:00 PM 53.2673 13.6259 281° West  Level Estimated
Wed 12:31:00 PM 53.2840 13.4813 281° West  Level Estimated
Wed 12:32:00 PM 53.3005 13.3366 281° West  Level Estimated
Wed 12:33:00 PM 53.3168 13.1917 281° West  Level Estimated
Wed 12:34:00 PM 53.3330 13.0468 281° West  Level Estimated
Wed 12:35:00 PM 53.3489 12.9017 281° West  Level Estimated
Wed 12:36:00 PM 53.3647 12.7566 280° West  Level Estimated
Wed 12:37:00 PM 53.3803 12.6113 280° West  Level Estimated
Wed 12:38:00 PM 53.3958 12.4660 280° West  Level Estimated
Wed 12:39:00 PM 53.4111 12.3205 280° West  Level Estimated
Wed 12:40:00 PM 53.4262 12.1749 280° West  Level Estimated
Wed 12:41:00 PM 53.4411 12.0292 280° West  Level Estimated
Wed 12:42:00 PM 53.4558 11.8834 280° West  Level Estimated
Wed 12:43:00 PM 53.4704 11.7376 280° West  Level Estimated
Wed 12:44:00 PM 53.4847 11.5916 279° West  Level Estimated
Wed 12:45:00 PM 53.4989 11.4455 279° West  Level Estimated
Wed 12:46:00 PM 53.5130 11.2993 279° West  Level Estimated
Wed 12:47:00 PM 53.5268 11.1531 279° West  Level Estimated
Wed 12:48:00 PM 53.5405 11.0067 279° West  Level Estimated
Wed 12:49:00 PM 53.5540 10.8602 279° West  Level Estimated
Wed 12:50:00 PM 53.5673 10.7137 279° West  Level Estimated
Wed 12:51:00 PM 53.5804 10.5670 279° West  Level Estimated
Wed 12:52:00 PM 53.5933 10.4203 279° West  Level Estimated
Wed 12:53:00 PM 53.6061 10.2735 278° West  Level Estimated
Wed 12:54:00 PM 53.6187 10.1265 278° West  Level Estimated
Wed 12:55:00 PM 53.6304 9.9882 278° West  Level Estimated
Wed 12:56:00 PM 53.6304 9.9882 230° Southwest  Level Estimated
Wed 12:57:00 PM 53.6304 9.9882 230° Southwest  Level Estimated
Wed 12:58:00 PM 53.6304 9.9882 230° Southwest  Level Estimated
Wed 12:59:00 PM 53.6304 9.9882 230° Southwest  Level Estimated
Wed 01:00:00 PM 53.6304 9.9882 230° Southwest  Level Estimated
Wed 01:01:00 PM 53.6304 9.9882 230° Southwest  Level Estimated
Wed 01:02:00 PM 53.6304 9.9882 230° Southwest  Level Estimated
Wed 01:03:00 PM 53.6304 9.9882 230° Southwest  Level Estimated
Wed 01:04:00 PM 53.6304 9.9882 230° Southwest  Level Estimated
Wed 01:05:00 PM 53.6304 9.9882 230° Southwest  Level Estimated
Wed 01:06:00 PM 53.6304 9.9882 230° Southwest  Level Estimated
Wed 01:07:00 PM 53.6304 9.9882 230° Southwest  Level Estimated
Wed 01:08:00 PM 53.6304 9.9882 230° Southwest  Level Estimated
Wed 01:09:00 PM 53.6304 9.9882 230° Southwest  Level Estimated
Wed 01:10:00 PM 53.6304 9.9882 230° Southwest  Level Estimated

Login

Don't have an account? Register now (free) for customized features, flight alerts, and more!